Eendracht — PDVN — position and weather

sailwx.info

Track history (hours):
 
Tides and Currents Weather Stations Pressure Air Temp Water Temp Dewpoint Dewpoint Depression Visibility Wind Speed Wind Dir Waves Ship Positions

Eendracht (Netherlands)

Last reported at 2017-Jun-27 01:28 UTC. Time now 2017-Jun-27 10:25 UTC.
Position N 53°02' E 003°58'.

Length 59 m; beam 12 m; draft 5 m.

Type: Sailing vessel. MMSI: 244543000.

Date/timePositionNaut miles runAvg speedWind from/ knotsBaromVisibWave heightAir tempDewpointWater temp
2017-Jun-27 01:28N 53°02' E 003°58'1 1.6
2017-Jun-27 00:59N 53°02' E 003°59'1 1.3
2017-Jun-27 00:30N 53°02' E 004°00'1 1.4
2017-Jun-27 00:00N 53°02' E 004°01'1 1.5
2017-Jun-26 23:29N 53°03' E 004°02'1 2.4
2017-Jun-26 22:59N 53°02' E 004°04'2 4.9
2017-Jun-26 22:30N 53°01' E 004°07'2 4.4
2017-Jun-26 22:00N 52°60' E 004°10'2 4.6
2017-Jun-26 21:30N 52°58' E 004°14'2 4.5
2017-Jun-26 21:00N 52°57' E 004°17'2 5.0
2017-Jun-26 20:31N 52°57' E 004°21'1 2.3
2017-Jun-26 20:01N 52°56' E 004°23'0 0.8
2017-Jun-26 19:31N 52°56' E 004°23'1 1.0
2017-Jun-26 19:01N 52°56' E 004°24'1 1.4
2017-Jun-26 18:31N 52°55' E 004°25'1 1.6
2017-Jun-26 18:01N 52°55' E 004°26'1 1.9
2017-Jun-26 17:31N 52°54' E 004°27'1 2.0
2017-Jun-26 17:01N 52°53' E 004°28'1 1.8
2017-Jun-26 16:31N 52°53' E 004°29'1 1.7
2017-Jun-26 16:00N 52°53' E 004°31'1 1.3
2017-Jun-26 15:31N 52°53' E 004°32'2 3.3
2017-Jun-26 15:01N 52°53' E 004°35'2 4.6
2017-Jun-26 14:31N 52°54' E 004°38'6 6.4
2017-Jun-26 13:31N 52°58' E 004°45'1 2.6
2017-Jun-26 13:01N 52°58' E 004°47'0 0.0
2017-Jun-26 12:28N 52°58' E 004°47'0 0.0
2017-Jun-26 11:55N 52°58' E 004°47'0 0.0
2017-Jun-26 11:28N 52°58' E 004°47'0 0.0
2017-Jun-26 10:58N 52°58' E 004°47'0 0.0
2017-Jun-26 10:28N 52°58' E 004°47'0 0.0
2017-Jun-26 09:55N 52°58' E 004°47'0 0.0
2017-Jun-26 09:28N 52°58' E 004°47'0 0.0
2017-Jun-26 08:58N 52°58' E 004°47'0 0.0
2017-Jun-26 08:28N 52°58' E 004°47'0 0.0
2017-Jun-26 07:55N 52°58' E 004°47'0 0.0
2017-Jun-26 07:28N 52°58' E 004°47'0 0.0
2017-Jun-26 06:58N 52°58' E 004°47'0 0.0
2017-Jun-26 06:25N 52°58' E 004°47'0 0.0
2017-Jun-26 05:58N 52°58' E 004°47'0 0.0
2017-Jun-26 05:28N 52°58' E 004°47'0 0.0
2017-Jun-26 04:58N 52°58' E 004°47'0 0.0
2017-Jun-26 04:28N 52°58' E 004°47'0 0.0
2017-Jun-26 03:58N 52°58' E 004°47'0 0.0
2017-Jun-26 03:28N 52°58' E 004°47'0 0.0
2017-Jun-26 02:58N 52°58' E 004°47'0 0.0
2017-Jun-26 02:28N 52°58' E 004°47'0 0.0
2017-Jun-26 01:55N 52°58' E 004°47'0 0.0
2017-Jun-26 01:28N 52°58' E 004°47'0 0.0
2017-Jun-26 00:58N 52°58' E 004°47'0 0.0
2017-Jun-26 00:28N 52°58' E 004°47'0 0.0
2017-Jun-26 00:01N 52°58' E 004°47'0 0.0
2017-Jun-25 23:31N 52°58' E 004°47'0 0.0
2017-Jun-25 22:57N 52°58' E 004°47'0 0.0
2017-Jun-25 22:30N 52°58' E 004°47'0 0.0
2017-Jun-25 22:00N 52°58' E 004°47'0 0.0
2017-Jun-25 21:30N 52°58' E 004°47'0 0.0
2017-Jun-25 21:00N 52°58' E 004°47'0 0.0
2017-Jun-25 20:30N 52°58' E 004°47'0 0.0
2017-Jun-25 20:00N 52°58' E 004°47'0 0.0
2017-Jun-25 19:30N 52°58' E 004°47'0 0.0
2017-Jun-25 19:00N 52°58' E 004°47'0 0.0
2017-Jun-25 18:30N 52°58' E 004°47'0 0.0
2017-Jun-25 18:00N 52°58' E 004°47'0 0.0
2017-Jun-25 17:30N 52°58' E 004°47'0 0.0
2017-Jun-25 17:00N 52°58' E 004°47'0 0.0
2017-Jun-25 16:30N 52°58' E 004°47'0 0.0
2017-Jun-25 16:00N 52°58' E 004°47'0 0.0
2017-Jun-25 15:30N 52°58' E 004°47'0 0.0
2017-Jun-25 15:00N 52°58' E 004°47'0 0.1
2017-Jun-25 14:00N 52°58' E 004°47'1 2.9
2017-Jun-25 13:31N 52°59' E 004°48'0 0.4
2017-Jun-25 12:58N 52°59' E 004°48'0 0.1
2017-Jun-25 12:30N 52°59' E 004°48'0 0.9
2017-Jun-25 12:01N 52°59' E 004°48'1 2.6
2017-Jun-25 11:31N 52°58' E 004°47'0 0.0
2017-Jun-25 11:00N 52°58' E 004°47'0 0.0
2017-Jun-25 10:30N 52°58' E 004°47'0 0.0
2017-Jun-25 10:00N 52°58' E 004°47'0 0.3
2017-Jun-25 09:30N 52°58' E 004°47'0 0.0
2017-Jun-25 09:00N 52°58' E 004°47'0 0.0
2017-Jun-25 08:30N 52°58' E 004°47'0 0.0
2017-Jun-25 08:00N 52°58' E 004°47'0 0.0
2017-Jun-25 07:30N 52°58' E 004°47'0 0.0
2017-Jun-25 07:00N 52°58' E 004°47'0 0.0
2017-Jun-25 06:30N 52°58' E 004°47'0 0.0
2017-Jun-25 06:00N 52°58' E 004°47'0 0.0
2017-Jun-25 05:30N 52°58' E 004°47'0 0.0
2017-Jun-25 05:00N 52°58' E 004°47'0 0.0
2017-Jun-25 04:30N 52°58' E 004°47'0 0.0
2017-Jun-25 04:00N 52°58' E 004°47'0 0.0
2017-Jun-25 03:30N 52°58' E 004°47'0 0.0
2017-Jun-25 03:00N 52°58' E 004°47'0 0.0
2017-Jun-25 02:30N 52°58' E 004°47'0 0.0
2017-Jun-25 02:00N 52°58' E 004°47'0 0.0
2017-Jun-25 01:30N 52°58' E 004°47'0 0.0
2017-Jun-25 01:00N 52°58' E 004°47'0 0.0
2017-Jun-25 00:30N 52°58' E 004°47'0 0.0
2017-Jun-25 00:00N 52°58' E 004°47'0 0.0
2017-Jun-24 23:30N 52°58' E 004°47'0 0.0
2017-Jun-24 23:00N 52°58' E 004°47'0 0.0
2017-Jun-24 22:30N 52°58' E 004°47'0 0.0
2017-Jun-24 21:57N 52°58' E 004°47'0 0.0
2017-Jun-24 21:30N 52°58' E 004°47'0 0.0
2017-Jun-24 20:57N 52°58' E 004°47'0 0.0
2017-Jun-24 20:30N 52°58' E 004°47'0 0.0
2017-Jun-24 20:00N 52°58' E 004°47'0 0.0
2017-Jun-24 19:30N 52°58' E 004°47'0 0.0
2017-Jun-24 19:00N 52°58' E 004°47'0 0.0
2017-Jun-24 18:30N 52°58' E 004°47'0 0.0
2017-Jun-24 18:00N 52°58' E 004°47'0 0.0
2017-Jun-24 17:27N 52°58' E 004°47'0 0.0
2017-Jun-24 17:00N 52°58' E 004°47'0 0.0
2017-Jun-24 16:30N 52°58' E 004°47'0 0.0
2017-Jun-24 16:00N 52°58' E 004°47'0 0.0
2017-Jun-24 15:30N 52°58' E 004°47'0 0.3
2017-Jun-24 15:00N 52°58' E 004°47'0 0.2
2017-Jun-24 14:00N 52°58' E 004°47'1 2.8
2017-Jun-24 13:30N 52°59' E 004°46'1 2.6
2017-Jun-24 13:00N 52°58' E 004°47'0 0.9
2017-Jun-24 12:30N 52°57' E 004°47'0 0.4
2017-Jun-24 12:00N 52°58' E 004°47'0 0.2
2017-Jun-24 11:30N 52°58' E 004°47'0 0.1
2017-Jun-24 10:59N 52°58' E 004°47'0 0.0
2017-Jun-24 10:29N 52°58' E 004°47'0 0.0
2017-Jun-24 09:59N 52°58' E 004°47'0 0.0
2017-Jun-24 09:29N 52°58' E 004°47'0 0.0
2017-Jun-24 08:59N 52°58' E 004°47'0 0.0
2017-Jun-24 08:29N 52°58' E 004°47'0 0.0
2017-Jun-24 07:59N 52°58' E 004°47'0 0.0
2017-Jun-24 07:29N 52°58' E 004°47'0 0.0
2017-Jun-24 06:56N 52°58' E 004°47'0 0.0
2017-Jun-24 06:29N 52°58' E 004°47'0 0.0
2017-Jun-24 05:59N 52°58' E 004°47'0 0.0
2017-Jun-24 05:29N 52°58' E 004°47'0 0.0
2017-Jun-24 04:59N 52°58' E 004°47'0 0.0
2017-Jun-24 04:29N 52°58' E 004°47'0 0.0
2017-Jun-24 03:59N 52°58' E 004°47'0 0.0
2017-Jun-24 03:29N 52°58' E 004°47'0 0.0
2017-Jun-24 02:59N 52°58' E 004°47'0 0.0
2017-Jun-24 02:29N 52°58' E 004°47'0 0.0
2017-Jun-24 01:59N 52°58' E 004°47'0 0.0
2017-Jun-24 01:29N 52°58' E 004°47'0 0.0
2017-Jun-24 00:59N 52°58' E 004°47'0 0.0
2017-Jun-24 00:29N 52°58' E 004°47'0 0.0
2017-Jun-23 23:58N 52°58' E 004°47'0 0.0
2017-Jun-23 23:28N 52°58' E 004°47'0 0.0
2017-Jun-23 22:55N 52°58' E 004°47'0 0.0
2017-Jun-23 22:28N 52°58' E 004°47'0 0.0
2017-Jun-23 22:00N 52°58' E 004°47'0 0.3
2017-Jun-23 21:30N 52°58' E 004°47'0 0.0
2017-Jun-23 21:00N 52°58' E 004°47'0 0.0
2017-Jun-23 20:30N 52°58' E 004°47'0 0.8
2017-Jun-23 20:00N 52°58' E 004°47'1 2.5
2017-Jun-23 19:30N 52°59' E 004°48'1 2.6
2017-Jun-23 19:00N 53°00' E 004°48'0 1.0
2017-Jun-23 18:30N 52°60' E 004°48'2 4.6
2017-Jun-23 18:00N 52°57' E 004°47'0 0.5
2017-Jun-23 17:30N 52°57' E 004°47'0 0.4
2017-Jun-23 17:00N 52°58' E 004°47'0 0.0
2017-Jun-23 16:28N 52°58' E 004°47'0 0.0
2017-Jun-23 15:58N 52°58' E 004°47'0 0.0
2017-Jun-23 15:28N 52°58' E 004°47'0 0.0
2017-Jun-23 14:58N 52°58' E 004°47'0 0.0
2017-Jun-23 14:28N 52°58' E 004°47'0 0.0
2017-Jun-23 13:58N 52°58' E 004°47'0 0.0
2017-Jun-23 13:30N 52°58' E 004°47'0 0.3
2017-Jun-23 12:55N 52°58' E 004°47'0 0.0
2017-Jun-23 12:28N 52°58' E 004°47'0 0.0
2017-Jun-23 11:58N 52°58' E 004°47'0 0.0
2017-Jun-23 11:28N 52°58' E 004°47'0 0.0
2017-Jun-23 10:58N 52°58' E 004°47'0 0.0
2017-Jun-23 10:28N 52°58' E 004°47'0 0.0
2017-Jun-23 09:58N 52°58' E 004°47'0 0.0
2017-Jun-23 09:25N 52°58' E 004°47'0 0.0
2017-Jun-23 08:58N 52°58' E 004°47'0 0.0
2017-Jun-23 08:28N 52°58' E 004°47'0 0.0
2017-Jun-23 07:58N 52°58' E 004°47'0 0.0
2017-Jun-23 07:28N 52°58' E 004°47'0 0.0
2017-Jun-23 06:58N 52°58' E 004°47'0 0.0
2017-Jun-23 06:28N 52°58' E 004°47'0 0.0
2017-Jun-23 05:58N 52°58' E 004°47'0 0.0
2017-Jun-23 05:25N 52°58' E 004°47'0 0.0
2017-Jun-23 04:58N 52°58' E 004°47'0 0.0
2017-Jun-23 04:28N 52°58' E 004°47'0 0.0
2017-Jun-23 03:58N 52°58' E 004°47'0 0.0
2017-Jun-23 03:28N 52°58' E 004°47'0 0.0
2017-Jun-23 02:58N 52°58' E 004°47'0 0.0
2017-Jun-23 02:28N 52°58' E 004°47'0 0.0
2017-Jun-23 01:58N 52°58' E 004°47'0 0.0
2017-Jun-23 01:28N 52°58' E 004°47'0 0.0
2017-Jun-23 00:58N 52°58' E 004°47'0 0.0
2017-Jun-23 00:28N 52°58' E 004°47'0 0.0
2017-Jun-22 23:58N 52°58' E 004°47'0 0.0
2017-Jun-22 23:25N 52°58' E 004°47'0 0.0
2017-Jun-22 23:01N 52°58' E 004°47'0 0.0
2017-Jun-22 22:27N 52°58' E 004°47'0 0.0
2017-Jun-22 22:00N 52°58' E 004°47'0 0.0
2017-Jun-22 21:30N 52°58' E 004°47'0 0.0
2017-Jun-22 20:57N 52°58' E 004°47'0 0.0
2017-Jun-22 20:30N 52°58' E 004°47'0 0.0
2017-Jun-22 20:00N 52°58' E 004°47'0 0.0
2017-Jun-22 19:30N 52°58' E 004°47'0 0.0
2017-Jun-22 19:00N 52°58' E 004°47'0 0.0
2017-Jun-22 18:30N 52°58' E 004°47'0 0.0
2017-Jun-22 18:00N 52°58' E 004°47'0 0.0
2017-Jun-22 17:30N 52°58' E 004°47'0 0.0
2017-Jun-22 17:00N 52°58' E 004°47'0 0.0
2017-Jun-22 16:30N 52°58' E 004°47'0 0.0
2017-Jun-22 15:57N 52°58' E 004°47'0 0.0
2017-Jun-22 15:30N 52°58' E 004°47'0 0.3
2017-Jun-22 15:00N 52°58' E 004°47'0 0.0
2017-Jun-22 14:00N 52°58' E 004°47'1 2.0
2017-Jun-22 13:30N 52°58' E 004°48'1 1.8
2017-Jun-22 13:00N 52°59' E 004°48'2 3.2
2017-Jun-22 12:30N 53°01' E 004°50'2 4.6
2017-Jun-22 12:01N 53°02' E 004°52'1 3.0
2017-Jun-22 11:30N 53°01' E 004°51'2 4.3
2017-Jun-22 11:00N 52°60' E 004°48'2 3.2
2017-Jun-22 10:30N 52°59' E 004°46'1 2.1
2017-Jun-22 10:00N 52°58' E 004°47'1 1.2
2017-Jun-22 09:30N 52°58' E 004°47'0 0.0
2017-Jun-22 09:00N 52°58' E 004°47'0 0.0
2017-Jun-22 08:30N 52°58' E 004°47'0 0.0
2017-Jun-22 08:00N 52°58' E 004°47'0 0.0
2017-Jun-22 07:27N 52°58' E 004°47'0 0.0
2017-Jun-22 07:00N 52°58' E 004°47'0 0.0
2017-Jun-22 06:30N 52°58' E 004°47'0 0.2
2017-Jun-22 06:00N 52°58' E 004°47'0 0.0
2017-Jun-22 05:30N 52°58' E 004°47'0 0.0
2017-Jun-22 05:00N 52°58' E 004°47'0 0.0
2017-Jun-22 04:30N 52°58' E 004°47'0 0.0
2017-Jun-22 04:00N 52°58' E 004°47'0 0.0
2017-Jun-22 03:27N 52°58' E 004°47'0 0.0
2017-Jun-22 02:57N 52°58' E 004°47'0 0.0
2017-Jun-22 02:30N 52°58' E 004°47'0 0.0
2017-Jun-22 02:00N 52°58' E 004°47'0 0.0
2017-Jun-22 01:30N 52°58' E 004°47'0 0.0
2017-Jun-22 01:00N 52°58' E 004°47'0 0.0
2017-Jun-22 00:30N 52°58' E 004°47'0 0.0
2017-Jun-22 00:00N 52°58' E 004°47'0 0.0
2017-Jun-21 23:30N 52°58' E 004°47'0 0.0
2017-Jun-21 23:00N 52°58' E 004°47'0 0.0
2017-Jun-21 22:30N 52°58' E 004°47'0 0.0
2017-Jun-21 22:00N 52°58' E 004°47'0 0.0
2017-Jun-21 21:30N 52°58' E 004°47'0 0.0
2017-Jun-21 21:00N 52°58' E 004°47'0 0.0
2017-Jun-21 20:30N 52°58' E 004°47'0 0.0
2017-Jun-21 20:00N 52°58' E 004°47'0 0.0
2017-Jun-21 19:30N 52°58' E 004°47'0 0.0
2017-Jun-21 18:59N 52°58' E 004°47'0 0.0
2017-Jun-21 18:29N 52°58' E 004°47'0 0.0
2017-Jun-21 17:59N 52°58' E 004°47'0 0.0
2017-Jun-21 17:29N 52°58' E 004°47'0 0.0
2017-Jun-21 16:59N 52°58' E 004°47'0 0.0
2017-Jun-21 16:29N 52°58' E 004°47'0 0.0
2017-Jun-21 15:59N 52°58' E 004°47'0 0.0
2017-Jun-21 15:29N 52°58' E 004°47'0 0.0
2017-Jun-21 14:59N 52°58' E 004°47'1 0.9
2017-Jun-21 14:00N 52°58' E 004°46'3 5.1
2017-Jun-21 13:30N 52°57' E 004°42'3 5.8
2017-Jun-21 13:00N 52°54' E 004°39'3 6.3
2017-Jun-21 12:30N 52°52' E 004°37'3 6.6
2017-Jun-21 12:00N 52°48' E 004°36'3 6.7
2017-Jun-21 11:30N 52°45' E 004°35'3 6.9
2017-Jun-21 11:00N 52°42' E 004°34'3 6.5
2017-Jun-21 10:30N 52°38' E 004°34'3 5.6
2017-Jun-21 10:00N 52°36' E 004°33'3 5.9
2017-Jun-21 09:30N 52°33' E 004°32'3 5.8
2017-Jun-21 09:00N 52°30' E 004°31'3 3.2
2017-Jun-21 08:00N 52°28' E 004°35'0 0.0
2017-Jun-21 07:30N 52°28' E 004°35'0 0.0
2017-Jun-21 07:00N 52°28' E 004°35'0 0.0
2017-Jun-21 06:30N 52°28' E 004°35'0 0.0
2017-Jun-21 06:00N 52°28' E 004°35'0 0.0
2017-Jun-21 05:30N 52°28' E 004°35'0 0.0
2017-Jun-21 05:00N 52°28' E 004°35'0 0.0
2017-Jun-21 04:30N 52°28' E 004°35'0 0.0
2017-Jun-21 04:00N 52°28' E 004°35'0 0.0
2017-Jun-21 03:30N 52°28' E 004°35'0 0.0
2017-Jun-21 03:01N 52°28' E 004°35'0 0.0
2017-Jun-21 02:30N 52°28' E 004°35'0 0.0
2017-Jun-21 02:00N 52°28' E 004°35'0 0.0
2017-Jun-21 01:30N 52°28' E 004°35'0 0.0
2017-Jun-21 01:00N 52°28' E 004°35'0 0.0
2017-Jun-21 00:30N 52°28' E 004°35'0 0.0
2017-Jun-21 00:01N 52°28' E 004°35'0 0.0
2017-Jun-20 23:30N 52°28' E 004°35'0 0.0
2017-Jun-20 23:00N 52°28' E 004°35'0 0.0
2017-Jun-20 22:01N 52°28' E 004°35'0 0.0
2017-Jun-20 21:30N 52°28' E 004°35'0 0.0
2017-Jun-20 21:00N 52°28' E 004°35'0 0.0
2017-Jun-20 20:30N 52°28' E 004°35'0 0.0
2017-Jun-20 20:00N 52°28' E 004°35'0 0.0
2017-Jun-20 19:30N 52°28' E 004°35'0 0.0
2017-Jun-20 19:00N 52°28' E 004°35'0 0.0
2017-Jun-20 18:30N 52°28' E 004°35'0 0.0
2017-Jun-20 18:00N 52°28' E 004°35'0 0.0
2017-Jun-20 17:30N 52°28' E 004°35'0 0.0
2017-Jun-20 17:00N 52°28' E 004°35'0 0.0
2017-Jun-20 16:30N 52°28' E 004°35'0 0.0
2017-Jun-20 16:00N 52°28' E 004°35'0 0.0
2017-Jun-20 15:30N 52°28' E 004°35'0 0.0
2017-Jun-20 15:00N 52°28' E 004°35'0 0.0
2017-Jun-20 14:00N 52°28' E 004°35'0 0.0
2017-Jun-20 13:30N 52°28' E 004°35'0 0.0
2017-Jun-20 13:00N 52°28' E 004°35'0 0.0
2017-Jun-20 12:30N 52°28' E 004°35'0 0.0
2017-Jun-20 12:01N 52°28' E 004°35'0 0.0
2017-Jun-20 11:31N 52°28' E 004°35'0 0.0
2017-Jun-20 11:00N 52°28' E 004°35'0 0.0
2017-Jun-20 10:30N 52°28' E 004°35'0 0.0
2017-Jun-20 10:00N 52°28' E 004°35'0 0.0
2017-Jun-20 09:30N 52°28' E 004°35'0 0.0
2017-Jun-20 09:00N 52°28' E 004°35'0 0.1
2017-Jun-20 08:30N 52°28' E 004°35'0 0.0
2017-Jun-20 08:00N 52°28' E 004°35'0 0.0
2017-Jun-20 07:30N 52°28' E 004°35'0 0.0
2017-Jun-20 07:00N 52°28' E 004°35'0 0.0
2017-Jun-20 06:30N 52°28' E 004°35'0 0.0
2017-Jun-20 06:00N 52°28' E 004°35'0 0.0
2017-Jun-20 05:30N 52°28' E 004°35'0 0.0
2017-Jun-20 05:00N 52°28' E 004°35'0 0.0
2017-Jun-20 04:31N 52°28' E 004°35'0 0.0
2017-Jun-20 04:01N 52°28' E 004°35'0 0.0
2017-Jun-20 03:31N 52°28' E 004°35'0 0.0
2017-Jun-20 03:01N 52°28' E 004°35'0 0.0
2017-Jun-20 02:31N 52°28' E 004°35'0 0.0
2017-Jun-20 02:01N 52°28' E 004°35'0 0.0
2017-Jun-20 01:31N 52°28' E 004°35'0 0.0
2017-Jun-20 01:01N 52°28' E 004°35'0 0.0
2017-Jun-20 00:30N 52°28' E 004°35'0 0.0
2017-Jun-20 00:00N 52°28' E 004°35'0 0.0
2017-Jun-19 23:30N 52°28' E 004°35'0 0.0
2017-Jun-19 23:00N 52°28' E 004°35'0 0.0
2017-Jun-19 22:30N 52°28' E 004°35'0 0.0
2017-Jun-19 22:00N 52°28' E 004°35'0 0.0
2017-Jun-19 21:30N 52°28' E 004°35'0 0.0
2017-Jun-19 21:00N 52°28' E 004°35'0 0.0
2017-Jun-19 20:30N 52°28' E 004°35'0 0.0
2017-Jun-19 20:00N 52°28' E 004°35'0 0.0
2017-Jun-19 19:30N 52°28' E 004°35'0 0.0
2017-Jun-19 19:00N 52°28' E 004°35'0 0.0
2017-Jun-19 18:30N 52°28' E 004°35'0 0.0
2017-Jun-19 18:00N 52°28' E 004°35'0 0.0
2017-Jun-19 17:30N 52°28' E 004°35'0 0.0
2017-Jun-19 17:00N 52°28' E 004°35'0 0.0
2017-Jun-19 16:30N 52°28' E 004°35'0 0.0
2017-Jun-19 16:00N 52°28' E 004°35'0 0.0
2017-Jun-19 15:30N 52°28' E 004°35'0 0.0
2017-Jun-19 15:00N 52°28' E 004°35'0 0.0
2017-Jun-19 14:00N 52°28' E 004°35'0 0.0
2017-Jun-19 13:30N 52°28' E 004°35'0 0.0
2017-Jun-19 13:00N 52°28' E 004°35'0 0.0
2017-Jun-19 12:30N 52°28' E 004°35'0 0.0
2017-Jun-19 12:00N 52°28' E 004°35'0 0.3
2017-Jun-19 11:30N 52°28' E 004°35'0 0.0
2017-Jun-19 11:00N 52°28' E 004°35'0 0.0
2017-Jun-19 10:30N 52°28' E 004°35'0 0.0
2017-Jun-19 10:00N 52°28' E 004°35'0 0.0
2017-Jun-19 09:30N 52°28' E 004°35'0 0.0
2017-Jun-19 09:00N 52°28' E 004°35'0 0.0
2017-Jun-19 08:30N 52°28' E 004°35'0 0.0
2017-Jun-19 08:00N 52°28' E 004°35'0 0.0
2017-Jun-19 07:30N 52°28' E 004°35'0 0.0
2017-Jun-19 07:00N 52°28' E 004°35'0 0.0
2017-Jun-19 06:30N 52°28' E 004°35'0 0.0
2017-Jun-19 06:01N 52°28' E 004°35'0 0.0
2017-Jun-19 05:30N 52°28' E 004°35'0 0.0
2017-Jun-19 05:00N 52°28' E 004°35'0 0.0
2017-Jun-19 04:30N 52°28' E 004°35'0 0.0
2017-Jun-19 04:00N 52°28' E 004°35'0 0.0
2017-Jun-19 03:31N 52°28' E 004°35'0 0.0
2017-Jun-19 03:00N 52°28' E 004°35'0 0.0
2017-Jun-19 02:30N 52°28' E 004°35'0 0.0
2017-Jun-19 02:01N 52°28' E 004°35'0 0.0
2017-Jun-19 01:30N 52°28' E 004°35'0 0.0
2017-Jun-19 01:00N 52°28' E 004°35'0 0.0
2017-Jun-19 00:30N 52°28' E 004°35'0 0.0
2017-Jun-19 00:00N 52°28' E 004°35'0 0.0
2017-Jun-18 23:30N 52°28' E 004°35'0 0.0
2017-Jun-18 23:00N 52°28' E 004°35'0 0.0
2017-Jun-18 22:31N 52°28' E 004°35'0 0.0
2017-Jun-18 22:00N 52°28' E 004°35'0 0.0
2017-Jun-18 21:30N 52°28' E 004°35'0 0.0
2017-Jun-18 21:01N 52°28' E 004°35'0 0.0
2017-Jun-18 20:31N 52°28' E 004°35'0 0.0
2017-Jun-18 20:01N 52°28' E 004°35'0 0.0
2017-Jun-18 19:30N 52°28' E 004°35'0 0.0
2017-Jun-18 19:00N 52°28' E 004°35'0 0.0
2017-Jun-18 18:30N 52°28' E 004°35'0 0.0
2017-Jun-18 18:00N 52°28' E 004°35'0 0.0
2017-Jun-18 17:30N 52°28' E 004°35'0 0.1
2017-Jun-18 17:00N 52°28' E 004°35'0 0.0
2017-Jun-18 16:30N 52°28' E 004°35'1 2.8
2017-Jun-18 16:00N 52°28' E 004°33'2 3.6
2017-Jun-18 15:30N 52°30' E 004°33'3 5.7
2017-Jun-18 15:00N 52°32' E 004°33'3 5.7
2017-Jun-18 14:30N 52°35' E 004°33'3 6.0
2017-Jun-18 14:00N 52°38' E 004°34'2 4.3
2017-Jun-18 13:31N 52°40' E 004°35'2 3.4
2017-Jun-18 13:00N 52°42' E 004°35'1 2.8
2017-Jun-18 12:30N 52°43' E 004°34'1 2.6
2017-Jun-18 12:01N 52°42' E 004°34'2 4.5
2017-Jun-18 11:31N 52°40' E 004°33'2 4.6
2017-Jun-18 11:00N 52°38' E 004°33'2 4.5
2017-Jun-18 10:30N 52°36' E 004°32'2 4.9
2017-Jun-18 10:00N 52°33' E 004°32'3 5.1
2017-Jun-18 09:30N 52°31' E 004°32'2 4.5
2017-Jun-18 09:00N 52°28' E 004°32'2 3.4
2017-Jun-18 08:26N 52°28' E 004°35'0 0.0
2017-Jun-18 07:59N 52°28' E 004°35'0 0.0
2017-Jun-18 07:29N 52°28' E 004°35'0 0.0
2017-Jun-18 06:59N 52°28' E 004°35'0 0.0
2017-Jun-18 06:29N 52°28' E 004°35'0 0.0
2017-Jun-18 05:59N 52°28' E 004°35'0 0.0
2017-Jun-18 05:29N 52°28' E 004°35'0 0.0
2017-Jun-18 04:59N 52°28' E 004°35'0 0.0
2017-Jun-18 04:29N 52°28' E 004°35'0 0.0
2017-Jun-18 03:59N 52°28' E 004°35'0 0.0
2017-Jun-18 03:29N 52°28' E 004°35'0 0.0
2017-Jun-18 02:59N 52°28' E 004°35'0 0.0
2017-Jun-18 02:29N 52°28' E 004°35'0 0.0
2017-Jun-18 01:59N 52°28' E 004°35'0 0.0
2017-Jun-18 01:29N 52°28' E 004°35'0 0.0
2017-Jun-18 00:59N 52°28' E 004°35'0 0.0
2017-Jun-18 00:29N 52°28' E 004°35'0 0.0
2017-Jun-17 23:59N 52°28' E 004°35'0 0.0
2017-Jun-17 23:29N 52°28' E 004°35'0 0.0
2017-Jun-17 22:59N 52°28' E 004°35'0 0.0
2017-Jun-17 22:29N 52°28' E 004°35'0 0.0
2017-Jun-17 21:59N 52°28' E 004°35'0 0.0
2017-Jun-17 21:29N 52°28' E 004°35'0 0.0
2017-Jun-17 20:59N 52°28' E 004°35'0 0.0
2017-Jun-17 20:29N 52°28' E 004°35'0 0.0
2017-Jun-17 19:59N 52°28' E 004°35'0 0.0
2017-Jun-17 19:29N 52°28' E 004°35'0 0.0
2017-Jun-17 18:59N 52°28' E 004°35'0 0.0
2017-Jun-17 18:29N 52°28' E 004°35'0 0.0
2017-Jun-17 18:00N 52°28' E 004°35'2 4.8
2017-Jun-17 17:30N 52°28' E 004°31'3 6.0
2017-Jun-17 17:00N 52°25' E 004°30'3 6.3
2017-Jun-17 16:30N 52°22' E 004°28'3 6.2
2017-Jun-17 16:00N 52°19' E 004°25'3 6.3
2017-Jun-17 15:30N 52°16' E 004°23'3 6.6
2017-Jun-17 15:00N 52°13' E 004°20'3 6.6
2017-Jun-17 14:30N 52°10' E 004°18'5 4.6
2017-Jun-17 13:30N 52°06' E 004°16'1 2.1
2017-Jun-17 13:00N 52°07' E 004°15'3 6.3
2017-Jun-17 12:30N 52°10' E 004°18'3 5.6
2017-Jun-17 12:00N 52°12' E 004°20'2 4.3
2017-Jun-17 11:30N 52°14' E 004°22'1 3.0
2017-Jun-17 11:01N 52°15' E 004°22'2 4.4
2017-Jun-17 10:30N 52°13' E 004°21'3 6.3
2017-Jun-17 10:00N 52°11' E 004°18'3 5.7
2017-Jun-17 09:30N 52°08' E 004°16'2 3.2
2017-Jun-17 09:00N 52°07' E 004°15'1 1.7
2017-Jun-17 08:30N 52°06' E 004°16'0 0.0
2017-Jun-17 08:00N 52°06' E 004°16'0 0.0
2017-Jun-17 07:30N 52°06' E 004°16'0 0.0
2017-Jun-17 07:00N 52°06' E 004°16'0 0.0
2017-Jun-17 06:30N 52°06' E 004°16'0 0.0
2017-Jun-17 06:00N 52°06' E 004°16'0 0.0
2017-Jun-17 05:30N 52°06' E 004°16'0 0.0
2017-Jun-17 05:00N 52°06' E 004°16'0 0.0
2017-Jun-17 04:30N 52°06' E 004°16'0 0.0
2017-Jun-17 04:00N 52°06' E 004°16'0 0.0
2017-Jun-17 03:30N 52°06' E 004°16'0 0.0
2017-Jun-17 03:00N 52°06' E 004°16'0 0.0
2017-Jun-17 02:30N 52°06' E 004°16'0 0.0
2017-Jun-17 02:00N 52°06' E 004°16'0 0.0
2017-Jun-17 01:30N 52°06' E 004°16'  
Track history (hours):
 
Tides and Currents Weather Stations Pressure Air Temp Water Temp Dewpoint Dewpoint Depression Visibility Wind Speed Wind Dir Waves Ship Positions

Eendracht (Netherlands)

Last reported at 2017-Jun-27 01:28 UTC. Time now 2017-Jun-27 10:25 UTC.
Position N 53°02' E 003°58'.

Length 59 m; beam 12 m; draft 5 m.

Type: Sailing vessel. MMSI: 244543000.

Date/timePositionNaut miles runAvg speedWind from/ knotsBaromVisibWave heightAir tempDewpointWater temp
2017-Jun-27 01:28N 53°02' E 003°58'1 1.6
2017-Jun-27 00:59N 53°02' E 003°59'1 1.3
2017-Jun-27 00:30N 53°02' E 004°00'1 1.4
2017-Jun-27 00:00N 53°02' E 004°01'1 1.5
2017-Jun-26 23:29N 53°03' E 004°02'1 2.4
2017-Jun-26 22:59N 53°02' E 004°04'2 4.9
2017-Jun-26 22:30N 53°01' E 004°07'2 4.4
2017-Jun-26 22:00N 52°60' E 004°10'2 4.6
2017-Jun-26 21:30N 52°58' E 004°14'2 4.5
2017-Jun-26 21:00N 52°57' E 004°17'2 5.0
2017-Jun-26 20:31N 52°57' E 004°21'1 2.3
2017-Jun-26 20:01N 52°56' E 004°23'0 0.8
2017-Jun-26 19:31N 52°56' E 004°23'1 1.0
2017-Jun-26 19:01N 52°56' E 004°24'1 1.4
2017-Jun-26 18:31N 52°55' E 004°25'1 1.6
2017-Jun-26 18:01N 52°55' E 004°26'1 1.9
2017-Jun-26 17:31N 52°54' E 004°27'1 2.0
2017-Jun-26 17:01N 52°53' E 004°28'1 1.8
2017-Jun-26 16:31N 52°53' E 004°29'1 1.7
2017-Jun-26 16:00N 52°53' E 004°31'1 1.3
2017-Jun-26 15:31N 52°53' E 004°32'2 3.3
2017-Jun-26 15:01N 52°53' E 004°35'2 4.6
2017-Jun-26 14:31N 52°54' E 004°38'6 6.4
2017-Jun-26 13:31N 52°58' E 004°45'1 2.6
2017-Jun-26 13:01N 52°58' E 004°47'0 0.0
2017-Jun-26 12:28N 52°58' E 004°47'0 0.0
2017-Jun-26 11:55N 52°58' E 004°47'0 0.0
2017-Jun-26 11:28N 52°58' E 004°47'0 0.0
2017-Jun-26 10:58N 52°58' E 004°47'0 0.0
2017-Jun-26 10:28N 52°58' E 004°47'0 0.0
2017-Jun-26 09:55N 52°58' E 004°47'0 0.0
2017-Jun-26 09:28N 52°58' E 004°47'0 0.0
2017-Jun-26 08:58N 52°58' E 004°47'0 0.0
2017-Jun-26 08:28N 52°58' E 004°47'0 0.0
2017-Jun-26 07:55N 52°58' E 004°47'0 0.0
2017-Jun-26 07:28N 52°58' E 004°47'0 0.0
2017-Jun-26 06:58N 52°58' E 004°47'0 0.0
2017-Jun-26 06:25N 52°58' E 004°47'0 0.0
2017-Jun-26 05:58N 52°58' E 004°47'0 0.0
2017-Jun-26 05:28N 52°58' E 004°47'0 0.0
2017-Jun-26 04:58N 52°58' E 004°47'0 0.0
2017-Jun-26 04:28N 52°58' E 004°47'0 0.0
2017-Jun-26 03:58N 52°58' E 004°47'0 0.0
2017-Jun-26 03:28N 52°58' E 004°47'0 0.0
2017-Jun-26 02:58N 52°58' E 004°47'0 0.0
2017-Jun-26 02:28N 52°58' E 004°47'0 0.0
2017-Jun-26 01:55N 52°58' E 004°47'0 0.0
2017-Jun-26 01:28N 52°58' E 004°47'0 0.0
2017-Jun-26 00:58N 52°58' E 004°47'0 0.0
2017-Jun-26 00:28N 52°58' E 004°47'0 0.0
2017-Jun-26 00:01N 52°58' E 004°47'0 0.0
2017-Jun-25 23:31N 52°58' E 004°47'0 0.0
2017-Jun-25 22:57N 52°58' E 004°47'0 0.0
2017-Jun-25 22:30N 52°58' E 004°47'0 0.0
2017-Jun-25 22:00N 52°58' E 004°47'0 0.0
2017-Jun-25 21:30N 52°58' E 004°47'0 0.0
2017-Jun-25 21:00N 52°58' E 004°47'0 0.0
2017-Jun-25 20:30N 52°58' E 004°47'0 0.0
2017-Jun-25 20:00N 52°58' E 004°47'0 0.0
2017-Jun-25 19:30N 52°58' E 004°47'0 0.0
2017-Jun-25 19:00N 52°58' E 004°47'0 0.0
2017-Jun-25 18:30N 52°58' E 004°47'0 0.0
2017-Jun-25 18:00N 52°58' E 004°47'0 0.0
2017-Jun-25 17:30N 52°58' E 004°47'0 0.0
2017-Jun-25 17:00N 52°58' E 004°47'0 0.0
2017-Jun-25 16:30N 52°58' E 004°47'0 0.0
2017-Jun-25 16:00N 52°58' E 004°47'0 0.0
2017-Jun-25 15:30N 52°58' E 004°47'0 0.0
2017-Jun-25 15:00N 52°58' E 004°47'0 0.1
2017-Jun-25 14:00N 52°58' E 004°47'1 2.9
2017-Jun-25 13:31N 52°59' E 004°48'0 0.4
2017-Jun-25 12:58N 52°59' E 004°48'0 0.1
2017-Jun-25 12:30N 52°59' E 004°48'0 0.9
2017-Jun-25 12:01N 52°59' E 004°48'1 2.6
2017-Jun-25 11:31N 52°58' E 004°47'0 0.0
2017-Jun-25 11:00N 52°58' E 004°47'0 0.0
2017-Jun-25 10:30N 52°58' E 004°47'0 0.0
2017-Jun-25 10:00N 52°58' E 004°47'0 0.3
2017-Jun-25 09:30N 52°58' E 004°47'0 0.0
2017-Jun-25 09:00N 52°58' E 004°47'0 0.0
2017-Jun-25 08:30N 52°58' E 004°47'0 0.0
2017-Jun-25 08:00N 52°58' E 004°47'0 0.0
2017-Jun-25 07:30N 52°58' E 004°47'0 0.0
2017-Jun-25 07:00N 52°58' E 004°47'0 0.0
2017-Jun-25 06:30N 52°58' E 004°47'0 0.0
2017-Jun-25 06:00N 52°58' E 004°47'0 0.0
2017-Jun-25 05:30N 52°58' E 004°47'0 0.0
2017-Jun-25 05:00N 52°58' E 004°47'0 0.0
2017-Jun-25 04:30N 52°58' E 004°47'0 0.0
2017-Jun-25 04:00N 52°58' E 004°47'0 0.0
2017-Jun-25 03:30N 52°58' E 004°47'0 0.0
2017-Jun-25 03:00N 52°58' E 004°47'0 0.0
2017-Jun-25 02:30N 52°58' E 004°47'0 0.0
2017-Jun-25 02:00N 52°58' E 004°47'0 0.0
2017-Jun-25 01:30N 52°58' E 004°47'0 0.0
2017-Jun-25 01:00N 52°58' E 004°47'0 0.0
2017-Jun-25 00:30N 52°58' E 004°47'0 0.0
2017-Jun-25 00:00N 52°58' E 004°47'0 0.0
2017-Jun-24 23:30N 52°58' E 004°47'0 0.0
2017-Jun-24 23:00N 52°58' E 004°47'0 0.0
2017-Jun-24 22:30N 52°58' E 004°47'0 0.0
2017-Jun-24 21:57N 52°58' E 004°47'0 0.0
2017-Jun-24 21:30N 52°58' E 004°47'0 0.0
2017-Jun-24 20:57N 52°58' E 004°47'0 0.0
2017-Jun-24 20:30N 52°58' E 004°47'0 0.0
2017-Jun-24 20:00N 52°58' E 004°47'0 0.0
2017-Jun-24 19:30N 52°58' E 004°47'0 0.0
2017-Jun-24 19:00N 52°58' E 004°47'0 0.0
2017-Jun-24 18:30N 52°58' E 004°47'0 0.0
2017-Jun-24 18:00N 52°58' E 004°47'0 0.0
2017-Jun-24 17:27N 52°58' E 004°47'0 0.0
2017-Jun-24 17:00N 52°58' E 004°47'0 0.0
2017-Jun-24 16:30N 52°58' E 004°47'0 0.0
2017-Jun-24 16:00N 52°58' E 004°47'0 0.0
2017-Jun-24 15:30N 52°58' E 004°47'0 0.3
2017-Jun-24 15:00N 52°58' E 004°47'0 0.2
2017-Jun-24 14:00N 52°58' E 004°47'1 2.8
2017-Jun-24 13:30N 52°59' E 004°46'1 2.6
2017-Jun-24 13:00N 52°58' E 004°47'0 0.9
2017-Jun-24 12:30N 52°57' E 004°47'0 0.4
2017-Jun-24 12:00N 52°58' E 004°47'0 0.2
2017-Jun-24 11:30N 52°58' E 004°47'0 0.1
2017-Jun-24 10:59N 52°58' E 004°47'0 0.0
2017-Jun-24 10:29N 52°58' E 004°47'0 0.0
2017-Jun-24 09:59N 52°58' E 004°47'0 0.0
2017-Jun-24 09:29N 52°58' E 004°47'0 0.0
2017-Jun-24 08:59N 52°58' E 004°47'0 0.0
2017-Jun-24 08:29N 52°58' E 004°47'0 0.0
2017-Jun-24 07:59N 52°58' E 004°47'0 0.0
2017-Jun-24 07:29N 52°58' E 004°47'0 0.0
2017-Jun-24 06:56N 52°58' E 004°47'0 0.0
2017-Jun-24 06:29N 52°58' E 004°47'0 0.0
2017-Jun-24 05:59N 52°58' E 004°47'0 0.0
2017-Jun-24 05:29N 52°58' E 004°47'0 0.0
2017-Jun-24 04:59N 52°58' E 004°47'0 0.0
2017-Jun-24 04:29N 52°58' E 004°47'0 0.0
2017-Jun-24 03:59N 52°58' E 004°47'0 0.0
2017-Jun-24 03:29N 52°58' E 004°47'0 0.0
2017-Jun-24 02:59N 52°58' E 004°47'0 0.0
2017-Jun-24 02:29N 52°58' E 004°47'0 0.0
2017-Jun-24 01:59N 52°58' E 004°47'0 0.0
2017-Jun-24 01:29N 52°58' E 004°47'0 0.0
2017-Jun-24 00:59N 52°58' E 004°47'0 0.0
2017-Jun-24 00:29N 52°58' E 004°47'0 0.0
2017-Jun-23 23:58N 52°58' E 004°47'0 0.0
2017-Jun-23 23:28N 52°58' E 004°47'0 0.0
2017-Jun-23 22:55N 52°58' E 004°47'0 0.0
2017-Jun-23 22:28N 52°58' E 004°47'0 0.0
2017-Jun-23 22:00N 52°58' E 004°47'0 0.3
2017-Jun-23 21:30N 52°58' E 004°47'0 0.0
2017-Jun-23 21:00N 52°58' E 004°47'0 0.0
2017-Jun-23 20:30N 52°58' E 004°47'0 0.8
2017-Jun-23 20:00N 52°58' E 004°47'1 2.5
2017-Jun-23 19:30N 52°59' E 004°48'1 2.6
2017-Jun-23 19:00N 53°00' E 004°48'0 1.0
2017-Jun-23 18:30N 52°60' E 004°48'2 4.6
2017-Jun-23 18:00N 52°57' E 004°47'0 0.5
2017-Jun-23 17:30N 52°57' E 004°47'0 0.4
2017-Jun-23 17:00N 52°58' E 004°47'0 0.0
2017-Jun-23 16:28N 52°58' E 004°47'0 0.0
2017-Jun-23 15:58N 52°58' E 004°47'0 0.0
2017-Jun-23 15:28N 52°58' E 004°47'0 0.0
2017-Jun-23 14:58N 52°58' E 004°47'0 0.0
2017-Jun-23 14:28N 52°58' E 004°47'0 0.0
2017-Jun-23 13:58N 52°58' E 004°47'0 0.0
2017-Jun-23 13:30N 52°58' E 004°47'0 0.3
2017-Jun-23 12:55N 52°58' E 004°47'0 0.0
2017-Jun-23 12:28N 52°58' E 004°47'0 0.0
2017-Jun-23 11:58N 52°58' E 004°47'0 0.0
2017-Jun-23 11:28N 52°58' E 004°47'0 0.0
2017-Jun-23 10:58N 52°58' E 004°47'0 0.0
2017-Jun-23 10:28N 52°58' E 004°47'0 0.0
2017-Jun-23 09:58N 52°58' E 004°47'0 0.0
2017-Jun-23 09:25N 52°58' E 004°47'0 0.0
2017-Jun-23 08:58N 52°58' E 004°47'0 0.0
2017-Jun-23 08:28N 52°58' E 004°47'0 0.0
2017-Jun-23 07:58N 52°58' E 004°47'0 0.0
2017-Jun-23 07:28N 52°58' E 004°47'0 0.0
2017-Jun-23 06:58N 52°58' E 004°47'0 0.0
2017-Jun-23 06:28N 52°58' E 004°47'0 0.0
2017-Jun-23 05:58N 52°58' E 004°47'0 0.0
2017-Jun-23 05:25N 52°58' E 004°47'0 0.0
2017-Jun-23 04:58N 52°58' E 004°47'0 0.0
2017-Jun-23 04:28N 52°58' E 004°47'0 0.0
2017-Jun-23 03:58N 52°58' E 004°47'0 0.0
2017-Jun-23 03:28N 52°58' E 004°47'0 0.0
2017-Jun-23 02:58N 52°58' E 004°47'0 0.0
2017-Jun-23 02:28N 52°58' E 004°47'0 0.0
2017-Jun-23 01:58N 52°58' E 004°47'0 0.0
2017-Jun-23 01:28N 52°58' E 004°47'0 0.0
2017-Jun-23 00:58N 52°58' E 004°47'0 0.0
2017-Jun-23 00:28N 52°58' E 004°47'0 0.0
2017-Jun-22 23:58N 52°58' E 004°47'0 0.0
2017-Jun-22 23:25N 52°58' E 004°47'0 0.0
2017-Jun-22 23:01N 52°58' E 004°47'0 0.0
2017-Jun-22 22:27N 52°58' E 004°47'0 0.0
2017-Jun-22 22:00N 52°58' E 004°47'0 0.0
2017-Jun-22 21:30N 52°58' E 004°47'0 0.0
2017-Jun-22 20:57N 52°58' E 004°47'0 0.0
2017-Jun-22 20:30N 52°58' E 004°47'0 0.0
2017-Jun-22 20:00N 52°58' E 004°47'0 0.0
2017-Jun-22 19:30N 52°58' E 004°47'0 0.0
2017-Jun-22 19:00N 52°58' E 004°47'0 0.0
2017-Jun-22 18:30N 52°58' E 004°47'0 0.0
2017-Jun-22 18:00N 52°58' E 004°47'0 0.0
2017-Jun-22 17:30N 52°58' E 004°47'0 0.0
2017-Jun-22 17:00N 52°58' E 004°47'0 0.0
2017-Jun-22 16:30N 52°58' E 004°47'0 0.0
2017-Jun-22 15:57N 52°58' E 004°47'0 0.0
2017-Jun-22 15:30N 52°58' E 004°47'0 0.3
2017-Jun-22 15:00N 52°58' E 004°47'0 0.0
2017-Jun-22 14:00N 52°58' E 004°47'1 2.0
2017-Jun-22 13:30N 52°58' E 004°48'1 1.8
2017-Jun-22 13:00N 52°59' E 004°48'2 3.2
2017-Jun-22 12:30N 53°01' E 004°50'2 4.6
2017-Jun-22 12:01N 53°02' E 004°52'1 3.0
2017-Jun-22 11:30N 53°01' E 004°51'2 4.3
2017-Jun-22 11:00N 52°60' E 004°48'2 3.2
2017-Jun-22 10:30N 52°59' E 004°46'1 2.1
2017-Jun-22 10:00N 52°58' E 004°47'1 1.2
2017-Jun-22 09:30N 52°58' E 004°47'0 0.0
2017-Jun-22 09:00N 52°58' E 004°47'0 0.0
2017-Jun-22 08:30N 52°58' E 004°47'0 0.0
2017-Jun-22 08:00N 52°58' E 004°47'0 0.0
2017-Jun-22 07:27N 52°58' E 004°47'0 0.0
2017-Jun-22 07:00N 52°58' E 004°47'0 0.0
2017-Jun-22 06:30N 52°58' E 004°47'0 0.2
2017-Jun-22 06:00N 52°58' E 004°47'0 0.0
2017-Jun-22 05:30N 52°58' E 004°47'0 0.0
2017-Jun-22 05:00N 52°58' E 004°47'0 0.0
2017-Jun-22 04:30N 52°58' E 004°47'0 0.0
2017-Jun-22 04:00N 52°58' E 004°47'0 0.0
2017-Jun-22 03:27N 52°58' E 004°47'0 0.0
2017-Jun-22 02:57N 52°58' E 004°47'0 0.0
2017-Jun-22 02:30N 52°58' E 004°47'0 0.0
2017-Jun-22 02:00N 52°58' E 004°47'0 0.0
2017-Jun-22 01:30N 52°58' E 004°47'0 0.0
2017-Jun-22 01:00N 52°58' E 004°47'0 0.0
2017-Jun-22 00:30N 52°58' E 004°47'0 0.0
2017-Jun-22 00:00N 52°58' E 004°47'0 0.0
2017-Jun-21 23:30N 52°58' E 004°47'0 0.0
2017-Jun-21 23:00N 52°58' E 004°47'0 0.0
2017-Jun-21 22:30N 52°58' E 004°47'0 0.0
2017-Jun-21 22:00N 52°58' E 004°47'0 0.0
2017-Jun-21 21:30N 52°58' E 004°47'0 0.0
2017-Jun-21 21:00N 52°58' E 004°47'0 0.0
2017-Jun-21 20:30N 52°58' E 004°47'0 0.0
2017-Jun-21 20:00N 52°58' E 004°47'0 0.0
2017-Jun-21 19:30N 52°58' E 004°47'0 0.0
2017-Jun-21 18:59N 52°58' E 004°47'0 0.0
2017-Jun-21 18:29N 52°58' E 004°47'0 0.0
2017-Jun-21 17:59N 52°58' E 004°47'0 0.0
2017-Jun-21 17:29N 52°58' E 004°47'0 0.0
2017-Jun-21 16:59N 52°58' E 004°47'0 0.0
2017-Jun-21 16:29N 52°58' E 004°47'0 0.0
2017-Jun-21 15:59N 52°58' E 004°47'0 0.0
2017-Jun-21 15:29N 52°58' E 004°47'0 0.0
2017-Jun-21 14:59N 52°58' E 004°47'1 0.9
2017-Jun-21 14:00N 52°58' E 004°46'3 5.1
2017-Jun-21 13:30N 52°57' E 004°42'3 5.8
2017-Jun-21 13:00N 52°54' E 004°39'3 6.3
2017-Jun-21 12:30N 52°52' E 004°37'3 6.6
2017-Jun-21 12:00N 52°48' E 004°36'3 6.7
2017-Jun-21 11:30N 52°45' E 004°35'3 6.9
2017-Jun-21 11:00N 52°42' E 004°34'3 6.5
2017-Jun-21 10:30N 52°38' E 004°34'3 5.6
2017-Jun-21 10:00N 52°36' E 004°33'3 5.9
2017-Jun-21 09:30N 52°33' E 004°32'3 5.8
2017-Jun-21 09:00N 52°30' E 004°31'3 3.2
2017-Jun-21 08:00N 52°28' E 004°35'0 0.0
2017-Jun-21 07:30N 52°28' E 004°35'0 0.0
2017-Jun-21 07:00N 52°28' E 004°35'0 0.0
2017-Jun-21 06:30N 52°28' E 004°35'0 0.0
2017-Jun-21 06:00N 52°28' E 004°35'0 0.0
2017-Jun-21 05:30N 52°28' E 004°35'0 0.0
2017-Jun-21 05:00N 52°28' E 004°35'0 0.0
2017-Jun-21 04:30N 52°28' E 004°35'0 0.0
2017-Jun-21 04:00N 52°28' E 004°35'0 0.0
2017-Jun-21 03:30N 52°28' E 004°35'0 0.0
2017-Jun-21 03:01N 52°28' E 004°35'0 0.0
2017-Jun-21 02:30N 52°28' E 004°35'0 0.0
2017-Jun-21 02:00N 52°28' E 004°35'0 0.0
2017-Jun-21 01:30N 52°28' E 004°35'0 0.0
2017-Jun-21 01:00N 52°28' E 004°35'0 0.0
2017-Jun-21 00:30N 52°28' E 004°35'0 0.0
2017-Jun-21 00:01N 52°28' E 004°35'0 0.0
2017-Jun-20 23:30N 52°28' E 004°35'0 0.0
2017-Jun-20 23:00N 52°28' E 004°35'0 0.0
2017-Jun-20 22:01N 52°28' E 004°35'0 0.0
2017-Jun-20 21:30N 52°28' E 004°35'0 0.0
2017-Jun-20 21:00N 52°28' E 004°35'0 0.0
2017-Jun-20 20:30N 52°28' E 004°35'0 0.0
2017-Jun-20 20:00N 52°28' E 004°35'0 0.0
2017-Jun-20 19:30N 52°28' E 004°35'0 0.0
2017-Jun-20 19:00N 52°28' E 004°35'0 0.0
2017-Jun-20 18:30N 52°28' E 004°35'0 0.0
2017-Jun-20 18:00N 52°28' E 004°35'0 0.0
2017-Jun-20 17:30N 52°28' E 004°35'0 0.0
2017-Jun-20 17:00N 52°28' E 004°35'0 0.0
2017-Jun-20 16:30N 52°28' E 004°35'0 0.0
2017-Jun-20 16:00N 52°28' E 004°35'0 0.0
2017-Jun-20 15:30N 52°28' E 004°35'0 0.0
2017-Jun-20 15:00N 52°28' E 004°35'0 0.0
2017-Jun-20 14:00N 52°28' E 004°35'0 0.0
2017-Jun-20 13:30N 52°28' E 004°35'0 0.0
2017-Jun-20 13:00N 52°28' E 004°35'0 0.0
2017-Jun-20 12:30N 52°28' E 004°35'0 0.0
2017-Jun-20 12:01N 52°28' E 004°35'0 0.0
2017-Jun-20 11:31N 52°28' E 004°35'0 0.0
2017-Jun-20 11:00N 52°28' E 004°35'0 0.0
2017-Jun-20 10:30N 52°28' E 004°35'0 0.0
2017-Jun-20 10:00N 52°28' E 004°35'0 0.0
2017-Jun-20 09:30N 52°28' E 004°35'0 0.0
2017-Jun-20 09:00N 52°28' E 004°35'0 0.1
2017-Jun-20 08:30N 52°28' E 004°35'0 0.0
2017-Jun-20 08:00N 52°28' E 004°35'0 0.0
2017-Jun-20 07:30N 52°28' E 004°35'0 0.0
2017-Jun-20 07:00N 52°28' E 004°35'0 0.0
2017-Jun-20 06:30N 52°28' E 004°35'0 0.0
2017-Jun-20 06:00N 52°28' E 004°35'0 0.0
2017-Jun-20 05:30N 52°28' E 004°35'0 0.0
2017-Jun-20 05:00N 52°28' E 004°35'0 0.0
2017-Jun-20 04:31N 52°28' E 004°35'0 0.0
2017-Jun-20 04:01N 52°28' E 004°35'0 0.0
2017-Jun-20 03:31N 52°28' E 004°35'0 0.0
2017-Jun-20 03:01N 52°28' E 004°35'0 0.0
2017-Jun-20 02:31N 52°28' E 004°35'0 0.0
2017-Jun-20 02:01N 52°28' E 004°35'0 0.0
2017-Jun-20 01:31N 52°28' E 004°35'0 0.0
2017-Jun-20 01:01N 52°28' E 004°35'0 0.0
2017-Jun-20 00:30N 52°28' E 004°35'0 0.0
2017-Jun-20 00:00N 52°28' E 004°35'0 0.0
2017-Jun-19 23:30N 52°28' E 004°35'0 0.0
2017-Jun-19 23:00N 52°28' E 004°35'0 0.0
2017-Jun-19 22:30N 52°28' E 004°35'0 0.0
2017-Jun-19 22:00N 52°28' E 004°35'0 0.0
2017-Jun-19 21:30N 52°28' E 004°35'0 0.0
2017-Jun-19 21:00N 52°28' E 004°35'0 0.0
2017-Jun-19 20:30N 52°28' E 004°35'0 0.0
2017-Jun-19 20:00N 52°28' E 004°35'0 0.0
2017-Jun-19 19:30N 52°28' E 004°35'0 0.0
2017-Jun-19 19:00N 52°28' E 004°35'0 0.0
2017-Jun-19 18:30N 52°28' E 004°35'0 0.0
2017-Jun-19 18:00N 52°28' E 004°35'0 0.0
2017-Jun-19 17:30N 52°28' E 004°35'0 0.0
2017-Jun-19 17:00N 52°28' E 004°35'0 0.0
2017-Jun-19 16:30N 52°28' E 004°35'0 0.0
2017-Jun-19 16:00N 52°28' E 004°35'0 0.0
2017-Jun-19 15:30N 52°28' E 004°35'0 0.0
2017-Jun-19 15:00N 52°28' E 004°35'0 0.0
2017-Jun-19 14:00N 52°28' E 004°35'0 0.0
2017-Jun-19 13:30N 52°28' E 004°35'0 0.0
2017-Jun-19 13:00N 52°28' E 004°35'0 0.0
2017-Jun-19 12:30N 52°28' E 004°35'0 0.0
2017-Jun-19 12:00N 52°28' E 004°35'0 0.3
2017-Jun-19 11:30N 52°28' E 004°35'0 0.0
2017-Jun-19 11:00N 52°28' E 004°35'0 0.0
2017-Jun-19 10:30N 52°28' E 004°35'0 0.0
2017-Jun-19 10:00N 52°28' E 004°35'0 0.0
2017-Jun-19 09:30N 52°28' E 004°35'0 0.0
2017-Jun-19 09:00N 52°28' E 004°35'0 0.0
2017-Jun-19 08:30N 52°28' E 004°35'0 0.0
2017-Jun-19 08:00N 52°28' E 004°35'0 0.0
2017-Jun-19 07:30N 52°28' E 004°35'0 0.0
2017-Jun-19 07:00N 52°28' E 004°35'0 0.0
2017-Jun-19 06:30N 52°28' E 004°35'0 0.0
2017-Jun-19 06:01N 52°28' E 004°35'0 0.0
2017-Jun-19 05:30N 52°28' E 004°35'0 0.0
2017-Jun-19 05:00N 52°28' E 004°35'0 0.0
2017-Jun-19 04:30N 52°28' E 004°35'0 0.0
2017-Jun-19 04:00N 52°28' E 004°35'0 0.0
2017-Jun-19 03:31N 52°28' E 004°35'0 0.0
2017-Jun-19 03:00N 52°28' E 004°35'0 0.0
2017-Jun-19 02:30N 52°28' E 004°35'0 0.0
2017-Jun-19 02:01N 52°28' E 004°35'0 0.0
2017-Jun-19 01:30N 52°28' E 004°35'0 0.0
2017-Jun-19 01:00N 52°28' E 004°35'0 0.0
2017-Jun-19 00:30N 52°28' E 004°35'0 0.0
2017-Jun-19 00:00N 52°28' E 004°35'0 0.0
2017-Jun-18 23:30N 52°28' E 004°35'0 0.0
2017-Jun-18 23:00N 52°28' E 004°35'0 0.0
2017-Jun-18 22:31N 52°28' E 004°35'0 0.0
2017-Jun-18 22:00N 52°28' E 004°35'0 0.0
2017-Jun-18 21:30N 52°28' E 004°35'0 0.0
2017-Jun-18 21:01N 52°28' E 004°35'0 0.0
2017-Jun-18 20:31N 52°28' E 004°35'0 0.0
2017-Jun-18 20:01N 52°28' E 004°35'0 0.0
2017-Jun-18 19:30N 52°28' E 004°35'0 0.0
2017-Jun-18 19:00N 52°28' E 004°35'0 0.0
2017-Jun-18 18:30N 52°28' E 004°35'0 0.0
2017-Jun-18 18:00N 52°28' E 004°35'0 0.0
2017-Jun-18 17:30N 52°28' E 004°35'0 0.1
2017-Jun-18 17:00N 52°28' E 004°35'0 0.0
2017-Jun-18 16:30N 52°28' E 004°35'1 2.8
2017-Jun-18 16:00N 52°28' E 004°33'2 3.6
2017-Jun-18 15:30N 52°30' E 004°33'3 5.7
2017-Jun-18 15:00N 52°32' E 004°33'3 5.7
2017-Jun-18 14:30N 52°35' E 004°33'3 6.0
2017-Jun-18 14:00N 52°38' E 004°34'2 4.3
2017-Jun-18 13:31N 52°40' E 004°35'2 3.4
2017-Jun-18 13:00N 52°42' E 004°35'1 2.8
2017-Jun-18 12:30N 52°43' E 004°34'1 2.6
2017-Jun-18 12:01N 52°42' E 004°34'2 4.5
2017-Jun-18 11:31N 52°40' E 004°33'2 4.6
2017-Jun-18 11:00N 52°38' E 004°33'2 4.5
2017-Jun-18 10:30N 52°36' E 004°32'2 4.9
2017-Jun-18 10:00N 52°33' E 004°32'3 5.1
2017-Jun-18 09:30N 52°31' E 004°32'2 4.5
2017-Jun-18 09:00N 52°28' E 004°32'2 3.4
2017-Jun-18 08:26N 52°28' E 004°35'0 0.0
2017-Jun-18 07:59N 52°28' E 004°35'0 0.0
2017-Jun-18 07:29N 52°28' E 004°35'0 0.0
2017-Jun-18 06:59N 52°28' E 004°35'0 0.0
2017-Jun-18 06:29N 52°28' E 004°35'0 0.0
2017-Jun-18 05:59N 52°28' E 004°35'0 0.0
2017-Jun-18 05:29N 52°28' E 004°35'0 0.0
2017-Jun-18 04:59N 52°28' E 004°35'0 0.0
2017-Jun-18 04:29N 52°28' E 004°35'0 0.0
2017-Jun-18 03:59N 52°28' E 004°35'0 0.0
2017-Jun-18 03:29N 52°28' E 004°35'0 0.0
2017-Jun-18 02:59N 52°28' E 004°35'0 0.0
2017-Jun-18 02:29N 52°28' E 004°35'0 0.0
2017-Jun-18 01:59N 52°28' E 004°35'0 0.0
2017-Jun-18 01:29N 52°28' E 004°35'0 0.0
2017-Jun-18 00:59N 52°28' E 004°35'0 0.0
2017-Jun-18 00:29N 52°28' E 004°35'0 0.0
2017-Jun-17 23:59N 52°28' E 004°35'0 0.0
2017-Jun-17 23:29N 52°28' E 004°35'0 0.0
2017-Jun-17 22:59N 52°28' E 004°35'0 0.0
2017-Jun-17 22:29N 52°28' E 004°35'0 0.0
2017-Jun-17 21:59N 52°28' E 004°35'0 0.0
2017-Jun-17 21:29N 52°28' E 004°35'0 0.0
2017-Jun-17 20:59N 52°28' E 004°35'0 0.0
2017-Jun-17 20:29N 52°28' E 004°35'0 0.0
2017-Jun-17 19:59N 52°28' E 004°35'0 0.0
2017-Jun-17 19:29N 52°28' E 004°35'0 0.0
2017-Jun-17 18:59N 52°28' E 004°35'0 0.0
2017-Jun-17 18:29N 52°28' E 004°35'0 0.0
2017-Jun-17 18:00N 52°28' E 004°35'2 4.8
2017-Jun-17 17:30N 52°28' E 004°31'3 6.0
2017-Jun-17 17:00N 52°25' E 004°30'3 6.3
2017-Jun-17 16:30N 52°22' E 004°28'3 6.2
2017-Jun-17 16:00N 52°19' E 004°25'3 6.3
2017-Jun-17 15:30N 52°16' E 004°23'3 6.6
2017-Jun-17 15:00N 52°13' E 004°20'3 6.6
2017-Jun-17 14:30N 52°10' E 004°18'5 4.6
2017-Jun-17 13:30N 52°06' E 004°16'1 2.1
2017-Jun-17 13:00N 52°07' E 004°15'3 6.3
2017-Jun-17 12:30N 52°10' E 004°18'3 5.6
2017-Jun-17 12:00N 52°12' E 004°20'2 4.3
2017-Jun-17 11:30N 52°14' E 004°22'1 3.0
2017-Jun-17 11:01N 52°15' E 004°22'2 4.4
2017-Jun-17 10:30N 52°13' E 004°21'3 6.3
2017-Jun-17 10:00N 52°11' E 004°18'3 5.7
2017-Jun-17 09:30N 52°08' E 004°16'2 3.2
2017-Jun-17 09:00N 52°07' E 004°15'1 1.7
2017-Jun-17 08:30N 52°06' E 004°16'0 0.0
2017-Jun-17 08:00N 52°06' E 004°16'0 0.0
2017-Jun-17 07:30N 52°06' E 004°16'0 0.0
2017-Jun-17 07:00N 52°06' E 004°16'0 0.0
2017-Jun-17 06:30N 52°06' E 004°16'0 0.0
2017-Jun-17 06:00N 52°06' E 004°16'0 0.0
2017-Jun-17 05:30N 52°06' E 004°16'0 0.0
2017-Jun-17 05:00N 52°06' E 004°16'0 0.0
2017-Jun-17 04:30N 52°06' E 004°16'0 0.0
2017-Jun-17 04:00N 52°06' E 004°16'0 0.0
2017-Jun-17 03:30N 52°06' E 004°16'0 0.0
2017-Jun-17 03:00N 52°06' E 004°16'0 0.0
2017-Jun-17 02:30N 52°06' E 004°16'0 0.0
2017-Jun-17 02:00N 52°06' E 004°16'0 0.0
2017-Jun-17 01:30N 52°06' E 004°16'  

Dump ship's entire track history